Northbridge, MA (01534)

10:46 PM EDT on August 27, 2014 (GMT -0400)
McQuades Lane | Change Station
CLOSE
Current Station
Personal Weather Station
Location: Northbridge, MA
Elevation: 330 ft
Nearby Weather Stations

Elev 330 ft 42.16 °N, 71.66 °W | Updated 42 minutes ago

Mostly Cloudy
Mostly Cloudy
71.2 °F
Feels Like 71.2 °F
N
1.6
Wind Variable Wind from East
Gusts 2.2 mph

Today
High -- | Low -- °F
--% Chance of Precip.
Yesterday
High -- | Low -- °F
Precip. -- in
6:06 AM 7:28 PM
Waxing Crescent, 6% visible
Pressure 29.91 in
Visibility 7.0 miles
Clouds Few 4700 ft
Mostly Cloudy 10000 ft
Mostly Cloudy 12000 ft
Dew Point 71 °F
Humidity 98%
Rainfall 0.02 in
Snow Depth Not available.
UV 0.0 out of 12
Pollen 9.90 out of 12
Air Quality Not available.
Flu Activity Not available.
SPECI KORH 280217Z AUTO 25008KT 7SM -RA FEW047 BKN100 BKN120 21/20 A2991 RMK AO2 TSE11 P0000 T02110200

More Conditions Fewer Conditions

Pressure 29.91 in
Visibility 7.0 miles
Clouds Few 4700 ft
Mostly Cloudy 10000 ft
Mostly Cloudy 12000 ft
Dew Point 71 °F
Humidity 98%
Rainfall 0.02 in
Snow Depth Not available.
UV 0.0 out of 12
Pollen 9.90 out of 12
Air Quality Not available.
Flu Activity Not available.
SPECI KORH 280217Z AUTO 25008KT 7SM -RA FEW047 BKN100 BKN120 21/20 A2991 RMK AO2 TSE11 P0000 T02110200

More Conditions Fewer Conditions

10-Day Weather Forecast

Almanac

Astronomy

Aug. 27, 2014 Rise Set
Actual Time 6:06 AM EDT 7:28 PM EDT
Civil Twilight 5:37 AM EDT 7:57 PM EDT
Nautical Twilight 5:02 AM EDT 8:32 PM EDT
Astronomical Twilight 4:25 AM EDT 9:09 PM EDT
Moon 8:02 AM EDT (8/27) 8:16 PM EDT (8/27)
Length of Visible Light 14h 20m
Length of Day
13h 21m
Tomorrow will be 2m 40s shorter.
Waxing Crescent, 6% of the Moon is Illuminated
Today
Waxing Crescent
Sep 2
First Quarter
Sep 8
Full
Sep 15
Last Quarter
Sep 24
New

Today's Extremes

State Highs State Lows

Community

WunderPhotos

Upload Photos

1,747,884 photos uploaded!

Nearby

Air Quality

  Air Quality AQ Index Pollutant
Yesterday Good
PM2.5
Yesterday Good
OZONE
Wednesday Moderate
PM2.5
Thursday Good
PM2.5
Thursday Good
OZONE

Snow Depth

Station Depth Elevation
No new snow has been reported.

Earthquake Activity

City Distance Mag. Time & Date
No recent earthquake activity has been reported nearby.
Minimum magnitude displayed is 2.5.

Coastal Water Temperatures

Place Temperature
Newport, RI 70.0 °F
Quonset Point, RI 73.0 °F
Conimicut Light, RI 73.9 °F

Nearby Weather Stations